Time;durP1;ratioP1;P1;durP2;ratioP2;P2;SDS_P1;SDS_P2;PMS_P1;PMS_P2;Temp;Humidity;BMP_temperature;BMP_pressure;BME280_temperature;BME280_humidity;BME280_pressure;Samples;Min_cycle;Max_cycle;Signal;HPM_P1;HPM_P2
2022/04/10 00:00:15;;;;;;;3.77;2.93;;;1.10;99.90;;;;;;5040387;28;20196;-80
2022/04/10 00:02:41;;;;;;;5.63;3.63;;;1.10;99.90;;;;;;5039178;28;20444;-80
2022/04/10 00:05:07;;;;;;;4.30;3.37;;;;;;;;;;5039627;28;20417;-81
2022/04/10 00:07:33;;;;;;;3.63;2.93;;;;;;;;;;5039371;28;20781;-81
2022/04/10 00:10:00;;;;;;;3.73;3.10;;;;;;;;;;5041739;28;20457;-81
2022/04/10 00:12:26;;;;;;;3.63;3.00;;;1.10;99.90;;;;;;5041133;28;20528;-81
2022/04/10 00:14:52;;;;;;;3.40;3.10;;;;;;;;;;5040861;28;20415;-81
2022/04/10 00:17:18;;;;;;;6.57;3.00;;;;;;;;;;5041013;28;20423;-81
2022/04/10 00:19:45;;;;;;;4.37;3.27;;;;;;;;;;5041844;28;20786;-81
2022/04/10 00:22:12;;;;;;;5.33;3.17;;;;;;;;;;5039882;28;20451;-81
2022/04/10 00:24:38;;;;;;;4.37;3.23;;;;;;;;;;5040304;28;20540;-81
2022/04/10 00:27:05;;;;;;;4.63;3.50;;;;;;;;;;5040350;28;20421;-80
2022/04/10 00:29:31;;;;;;;4.20;3.50;;;1.10;99.90;;;;;;5041031;28;20433;-81
2022/04/10 00:31:57;;;;;;;4.37;3.53;;;1.40;99.90;;;;;;5040714;28;20423;-83
2022/04/10 00:34:23;;;;;;;4.83;3.73;;;;;;;;;;5041095;28;20304;-84
2022/04/10 00:36:49;;;;;;;3.63;3.03;;;;;;;;;;5041266;28;20190;-83
2022/04/10 00:39:15;;;;;;;5.93;4.53;;;;;;;;;;5040714;28;20514;-83
2022/04/10 00:41:41;;;;;;;5.60;3.73;;;;;;;;;;5039424;28;20417;-83
2022/04/10 00:44:11;;;;;;;4.73;3.80;;;0.80;99.90;;;;;;5040746;28;20503;-83
2022/04/10 00:46:38;;;;;;;3.67;2.73;;;0.90;99.90;;;;;;5038928;28;20447;-83
2022/04/10 00:49:04;;;;;;;6.00;3.37;;;0.90;99.90;;;;;;5038807;28;20503;-82
2022/04/10 00:51:44;;;;;;;4.07;3.33;;;0.90;99.90;;;;;;5040705;28;20486;-81
2022/04/10 00:54:18;;;;;;;5.63;3.00;;;0.90;99.90;;;;;;5042783;28;20494;-83
2022/04/10 00:56:45;;;;;;;5.73;2.93;;;0.90;99.90;;;;;;5041166;28;20957;-83
2022/04/10 00:59:11;;;;;;;5.57;3.33;;;;;;;;;;5043438;28;20433;-81
2022/04/10 01:01:38;;;;;;;3.47;3.00;;;0.90;99.90;;;;;;5041499;28;20413;-83
2022/04/10 01:04:06;;;;;;;4.73;3.27;;;0.90;99.90;;;;;;5040884;28;20416;-83
2022/04/10 01:06:35;;;;;;;6.70;3.50;;;;;;;;;;5040069;28;20903;-83
2022/04/10 01:09:05;;;;;;;6.43;3.50;;;0.90;99.90;;;;;;5037618;28;20444;-83
2022/04/10 01:11:33;;;;;;;6.77;3.43;;;0.90;99.90;;;;;;5036609;28;20436;-81
2022/04/10 01:13:59;;;;;;;5.03;3.97;;;;;;;;;;5036345;28;20468;-81
2022/04/10 01:16:25;;;;;;;4.70;3.37;;;;;;;;;;5040720;28;20443;-81
2022/04/10 01:18:51;;;;;;;3.70;2.90;;;;;;;;;;5042687;28;20445;-81
2022/04/10 01:21:23;;;;;;;4.93;3.90;;;1.00;99.90;;;;;;5043473;28;20421;-81
2022/04/10 01:23:50;;;;;;;3.50;3.03;;;0.90;99.90;;;;;;5043909;28;20413;-81
2022/04/10 01:26:16;;;;;;;4.73;3.53;;;;;;;;;;5043103;28;20417;-83
2022/04/10 01:29:04;;;;;;;6.57;3.80;;;1.00;99.90;;;;;;5043184;28;20417;-83
2022/04/10 01:31:32;;;;;;;5.40;3.87;;;0.90;99.90;;;;;;5045418;28;20413;-83
2022/04/10 01:34:02;;;;;;;3.87;3.47;;;1.00;99.90;;;;;;5044716;28;20460;-84
2022/04/10 01:36:30;;;;;;;3.87;3.40;;;1.10;99.90;;;;;;5043394;28;20420;-84
2022/04/10 01:38:58;;;;;;;9.37;3.70;;;1.10;99.90;;;;;;5043444;28;20437;-81
2022/04/10 01:41:25;;;;;;;5.47;3.23;;;;;;;;;;5043610;28;20421;-81
2022/04/10 01:43:52;;;;;;;8.37;3.77;;;1.10;99.90;;;;;;5043432;28;20763;-81
2022/04/10 01:46:19;;;;;;;8.03;3.50;;;2.50;99.90;;;;;;5043437;28;20428;-81
2022/04/10 01:48:45;;;;;;;8.07;3.20;;;;;;;;;;5042880;28;20445;-81
2022/04/10 01:51:11;;;;;;;6.77;3.60;;;;;;;;;;5044565;28;20412;-83
2022/04/10 01:53:38;;;;;;;5.67;3.43;;;;;;;;;;5042439;28;20815;-83
2022/04/10 01:56:05;;;;;;;4.97;3.50;;;0.90;99.90;;;;;;5044116;28;20891;-83
2022/04/10 01:58:32;;;;;;;5.20;3.77;;;0.80;99.90;;;;;;5042003;28;20488;-84
2022/04/10 02:00:57;;;;;;;5.90;4.00;;;1.50;99.90;;;;;;5044171;28;20787;-81
2022/04/10 02:03:23;;;;;;;5.00;3.37;;;0.90;99.90;;;;;;5043483;28;20412;-81
2022/04/10 02:05:49;;;;;;;5.70;3.27;;;;;;;;;;5043720;28;20174;-84
2022/04/10 02:08:15;;;;;;;4.47;3.07;;;0.70;99.90;;;;;;5044184;28;20170;-81
2022/04/10 02:10:41;;;;;;;6.27;3.87;;;0.70;99.90;;;;;;5043826;28;20554;-81
2022/04/10 02:13:07;;;;;;;10.63;5.60;;;0.70;99.90;;;;;;5042314;28;20198;-81
2022/04/10 02:15:38;;;;;;;15.97;10.63;;;0.80;99.90;;;;;;5043603;28;20436;-81
2022/04/10 02:18:04;;;;;;;9.20;5.27;;;;;;;;;;5043244;28;20171;-81
2022/04/10 02:20:30;;;;;;;6.33;4.97;;;;;;;;;;5043814;28;20753;-81
2022/04/10 02:22:56;;;;;;;9.33;4.23;;;0.70;99.90;;;;;;5042345;28;20899;-81
2022/04/10 02:25:22;;;;;;;9.93;5.03;;;0.70;99.90;;;;;;5044247;28;20424;-81
2022/04/10 02:27:48;;;;;;;5.73;4.93;;;0.60;99.90;;;;;;5042611;28;20321;-81
2022/04/10 02:30:13;;;;;;;7.57;5.97;;;0.90;99.90;;;;;;5042762;28;20213;-81
2022/04/10 02:32:40;;;;;;;5.83;5.07;;;0.60;99.90;;;;;;5043769;28;20228;-81
2022/04/10 02:35:07;;;;;;;7.13;3.73;;;1.70;99.90;;;;;;5042109;28;20257;-81
2022/04/10 02:37:33;;;;;;;7.17;4.07;;;0.60;99.90;;;;;;5042471;28;20464;-81
2022/04/10 02:39:59;;;;;;;5.00;3.97;;;;;;;;;;5043702;28;20452;-81
2022/04/10 02:42:27;;;;;;;7.43;4.40;;;;;;;;;;5042367;28;20534;-84
2022/04/10 02:44:53;;;;;;;8.33;4.57;;;;;;;;;;5042661;28;20855;-83
2022/04/10 02:47:19;;;;;;;5.47;4.40;;;;;;;;;;5042407;28;20968;-84
2022/04/10 02:49:46;;;;;;;4.23;3.83;;;;;;;;;;5043868;28;20425;-84
2022/04/10 02:52:13;;;;;;;5.80;4.53;;;;;;;;;;5042079;28;20413;-84
2022/04/10 02:54:39;;;;;;;5.40;4.50;;;;;;;;;;5043674;28;20412;-81
2022/04/10 02:57:05;;;;;;;5.53;4.87;;;0.60;99.90;;;;;;5042220;28;20467;-81
2022/04/10 02:59:31;;;;;;;4.73;4.23;;;;;;;;;;5043252;28;20440;-81
2022/04/10 03:01:57;;;;;;;6.33;4.73;;;;;;;;;;5042909;28;20174;-81
2022/04/10 03:04:22;;;;;;;6.97;4.27;;;0.80;99.90;;;;;;5042116;28;20477;-81
2022/04/10 03:06:48;;;;;;;5.07;4.47;;;0.80;99.90;;;;;;5052014;28;20265;-80
2022/04/10 03:09:14;;;;;;;6.20;4.20;;;;;;;;;;5058059;28;20190;-80
2022/04/10 03:11:40;;;;;;;6.07;4.87;;;;;;;;;;5045783;28;20678;-81
2022/04/10 03:14:06;;;;;;;4.80;4.20;;;0.90;99.90;;;;;;5039310;28;20838;-81
2022/04/10 03:16:32;;;;;;;6.83;4.00;;;0.90;99.90;;;;;;5038591;28;20420;-81
2022/04/10 03:18:57;;;;;;;5.17;4.40;;;0.90;99.90;;;;;;5038595;28;20356;-81
2022/04/10 03:21:23;;;;;;;3.90;3.43;;;1.00;99.90;;;;;;5039743;28;20748;-81
2022/04/10 03:23:49;;;;;;;4.93;3.57;;;;;;;;;;5038288;28;20185;-81
2022/04/10 03:26:15;;;;;;;6.33;3.17;;;1.00;99.90;;;;;;5037256;28;20209;-81
2022/04/10 03:28:41;;;;;;;5.53;3.33;;;1.00;99.90;;;;;;5038490;28;20262;-81
2022/04/10 03:31:07;;;;;;;6.13;3.83;;;;;;;;;;5038156;28;20558;-80
2022/04/10 03:33:33;;;;;;;4.37;3.80;;;1.10;99.90;;;;;;5038378;28;20452;-81
2022/04/10 03:35:59;;;;;;;7.10;3.93;;;1.10;99.90;;;;;;5037439;28;20189;-81
2022/04/10 03:38:25;;;;;;;4.80;3.57;;;;;;;;;;5037217;28;20201;-81
2022/04/10 03:40:51;;;;;;;4.10;3.33;;;;;;;;;;5038744;28;20186;-80
2022/04/10 03:43:17;;;;;;;4.10;3.57;;;;;;;;;;5039553;28;20754;-80
2022/04/10 03:45:43;;;;;;;10.10;4.20;;;;;;;;;;5038965;28;20444;-81
2022/04/10 03:48:09;;;;;;;4.03;3.63;;;1.10;99.90;;;;;;5038998;28;20981;-80
2022/04/10 03:50:34;;;;;;;5.30;3.93;;;1.10;99.90;;;;;;5038683;28;20263;-81
2022/04/10 03:53:04;;;;;;;6.10;4.23;;;1.10;99.90;;;;;;5038923;28;20233;-81
2022/04/10 03:55:31;;;;;;;4.57;3.60;;;1.10;99.90;;;;;;5038960;28;20554;-81
2022/04/10 03:57:57;;;;;;;5.37;4.33;;;;;;;;;;5039898;28;20421;-81
2022/04/10 04:00:23;;;;;;;3.93;3.43;;;;;;;;;;5041759;28;20433;-81
2022/04/10 04:02:48;;;;;;;4.93;4.30;;;1.00;99.90;;;;;;5040610;28;20832;-82
2022/04/10 04:05:14;;;;;;;3.87;3.40;;;2.90;99.90;;;;;;5038062;28;20431;-80
2022/04/10 04:07:40;;;;;;;5.00;4.40;;;1.00;99.90;;;;;;5037256;28;20200;-81
2022/04/10 04:10:07;;;;;;;4.87;3.80;;;1.00;99.90;;;;;;5037696;28;20198;-81
2022/04/10 04:12:35;;;;;;;6.63;3.53;;;1.00;99.90;;;;;;5036661;28;20200;-80
2022/04/10 04:15:01;;;;;;;7.50;4.00;;;1.00;99.90;;;;;;5036246;28;20409;-80
2022/04/10 04:17:27;;;;;;;6.07;4.10;;;;;;;;;;5035457;28;20405;-81
2022/04/10 04:19:53;;;;;;;4.90;4.20;;;1.00;99.90;;;;;;5034336;28;20421;-81
2022/04/10 04:22:19;;;;;;;5.93;4.50;;;1.10;99.90;;;;;;5034224;28;20278;-81
2022/04/10 04:24:46;;;;;;;6.63;4.43;;;;;;;;;;5042212;28;20417;-82
2022/04/10 04:27:12;;;;;;;4.70;4.30;;;;;;;;;;5042753;28;20412;-81
2022/04/10 04:29:38;;;;;;;6.57;4.23;;;;;;;;;;5044559;28;20436;-82
2022/04/10 04:32:04;;;;;;;9.13;4.80;;;1.00;99.90;;;;;;5046688;28;20412;-82
2022/04/10 04:34:30;;;;;;;6.63;4.33;;;;;;;;;;5044278;28;20457;-82
2022/04/10 04:36:57;;;;;;;6.20;4.13;;;;;;;;;;5046490;28;20489;-82
2022/04/10 04:39:23;;;;;;;4.80;4.30;;;;;;;;;;5044668;28;20797;-82
2022/04/10 04:41:49;;;;;;;8.20;5.17;;;;;;;;;;5046465;28;20413;-82
2022/04/10 04:44:16;;;;;;;5.80;4.30;;;;;;;;;;5055679;28;20412;-81
2022/04/10 04:46:42;;;;;;;5.30;4.37;;;;;;;;;;5049153;28;20420;-82
2022/04/10 04:49:08;;;;;;;5.67;4.33;;;1.10;99.90;;;;;;5042925;28;20459;-82
2022/04/10 04:51:36;;;;;;;9.40;4.40;;;1.60;99.90;;;;;;5042998;28;20510;-81
2022/04/10 04:54:03;;;;;;;5.23;4.73;;;1.10;99.90;;;;;;5043721;28;20285;-82
2022/04/10 04:56:29;;;;;;;6.53;4.57;;;;;;;;;;5043796;28;20436;-82
2022/04/10 04:58:55;;;;;;;5.33;4.23;;;;;;;;;;5045134;28;20488;-82
2022/04/10 05:01:22;;;;;;;5.73;5.20;;;;;;;;;;5043487;28;20827;-81
2022/04/10 05:03:49;;;;;;;7.43;4.57;;;;;;;;;;5045056;28;20899;-82
2022/04/10 05:06:15;;;;;;;5.50;4.93;;;;;;;;;;5043306;28;20834;-81
2022/04/10 05:08:41;;;;;;;6.40;5.10;;;0.90;99.90;;;;;;5043312;28;20409;-81
2022/04/10 05:11:11;;;;;;;7.00;5.40;;;1.60;99.90;;;;;;5045082;28;20926;-81
2022/04/10 05:13:37;;;;;;;5.53;4.93;;;;;;;;;;5044532;28;20197;-81
2022/04/10 05:16:03;;;;;;;5.80;4.70;;;;;;;;;;5044859;28;20436;-81
2022/04/10 05:18:29;;;;;;;6.67;4.63;;;;;;;;;;5044014;28;20899;-81
2022/04/10 05:20:55;;;;;;;6.83;4.70;;;;;;;;;;5043816;28;20435;-81
2022/04/10 05:23:21;;;;;;;5.60;4.67;;;;;;;;;;5044760;28;20404;-82
2022/04/10 05:25:48;;;;;;;4.83;3.97;;;1.20;99.90;;;;;;5044722;28;20412;-82
2022/04/10 05:28:14;;;;;;;7.03;5.20;;;;;;;;;;5042633;28;20432;-82
2022/04/10 05:30:41;;;;;;;4.70;4.30;;;;;;;;;;5044314;28;20922;-82
2022/04/10 05:33:07;;;;;;;6.70;4.33;;;;;;;;;;5041120;28;20457;-82
2022/04/10 05:35:33;;;;;;;9.27;4.70;;;;;;;;;;5043014;28;20482;-82
2022/04/10 05:37:59;;;;;;;5.10;4.60;;;;;;;;;;5040546;28;20946;-82
2022/04/10 05:40:25;;;;;;;5.97;4.83;;;;;;;;;;5042695;28;20421;-82
2022/04/10 05:42:51;;;;;;;5.43;4.67;;;;;;;;;;5042522;28;20432;-82
2022/04/10 05:45:17;;;;;;;8.77;4.97;;;1.40;99.90;;;;;;5040572;28;20428;-82
2022/04/10 05:47:43;;;;;;;6.70;4.63;;;1.50;99.90;;;;;;5041969;28;20214;-82
2022/04/10 05:50:10;;;;;;;5.37;3.97;;;1.40;99.90;;;;;;5042300;28;20202;-82
2022/04/10 05:52:47;;;;;;;5.00;4.50;;;1.50;99.90;;;;;;5042048;28;20453;-81
2022/04/10 05:55:15;;;;;;;4.73;4.17;;;1.50;99.90;;;;;;5041212;28;20463;-82
2022/04/10 05:57:41;;;;;;;6.57;4.10;;;1.60;99.90;;;;;;5041776;28;20409;-82
2022/04/10 06:00:13;;;;;;;8.40;4.90;;;1.60;99.90;;;;;;5041190;28;20831;-83
2022/04/10 06:02:40;;;;;;;6.27;4.40;;;1.60;99.90;;;;;;5041054;28;20918;-82
2022/04/10 06:05:06;;;;;;;5.70;4.97;;;1.60;99.90;;;;;;5042782;28;20420;-82
2022/04/10 06:07:32;;;;;;;7.50;4.87;;;1.70;99.90;;;;;;5041161;28;20432;-83
2022/04/10 06:09:58;;;;;;;6.10;4.57;;;1.70;99.90;;;;;;5041415;28;20448;-83
2022/04/10 06:12:25;;;;;;;6.27;4.90;;;1.70;99.90;;;;;;5042449;28;20659;-83
2022/04/10 06:14:51;;;;;;;9.40;5.20;;;;;;;;;;5043784;28;20702;-83
2022/04/10 06:17:16;;;;;;;5.27;4.13;;;1.70;99.90;;;;;;5042036;28;20440;-82
2022/04/10 06:19:42;;;;;;;5.83;5.20;;;;;;;;;;5041637;28;20217;-82
2022/04/10 06:22:08;;;;;;;7.57;5.33;;;1.70;99.90;;;;;;5043022;28;20180;-83
2022/04/10 06:24:35;;;;;;;6.10;4.67;;;1.80;99.90;;;;;;5041724;28;20941;-83
2022/04/10 06:27:01;;;;;;;7.27;4.97;;;;;;;;;;5041324;28;20525;-83
2022/04/10 06:29:27;;;;;;;6.47;4.90;;;;;;;;;;5044392;28;20429;-82
2022/04/10 06:31:54;;;;;;;6.20;5.40;;;;;;;;;;5042320;28;20417;-83
2022/04/10 06:34:20;;;;;;;5.13;4.47;;;;;;;;;;5042681;28;20471;-83
2022/04/10 06:36:47;;;;;;;7.57;5.80;;;1.90;99.90;;;;;;5041513;28;20429;-82
2022/04/10 06:39:13;;;;;;;18.80;15.60;;;1.90;99.90;;;;;;5041835;28;20495;-82
2022/04/10 06:41:39;;;;;;;5.37;4.83;;;;;;;;;;5042001;28;20923;-83
2022/04/10 06:44:05;;;;;;;8.00;6.77;;;2.30;99.90;;;;;;5042616;28;20420;-83
2022/04/10 06:46:30;;;;;;;6.40;4.97;;;2.40;99.90;;;;;;5049888;28;20435;-82
2022/04/10 06:48:57;;;;;;;8.67;4.70;;;2.50;99.90;;;;;;5049587;28;20280;-82
2022/04/10 06:51:23;;;;;;;5.20;4.53;;;2.50;99.90;;;;;;5045598;28;20421;-82
2022/04/10 06:53:49;;;;;;;5.83;5.23;;;;;;;;;;5037744;28;20213;-82
2022/04/10 06:56:15;;;;;;;5.70;4.70;;;2.30;99.90;;;;;;5037857;28;20178;-82
2022/04/10 06:58:41;;;;;;;6.37;5.10;;;2.20;99.90;;;;;;5038320;28;20424;-82
2022/04/10 07:01:07;;;;;;;6.60;4.80;;;;;;;;;;5037173;28;20423;-82
2022/04/10 07:03:33;;;;;;;7.10;5.53;;;2.20;99.90;;;;;;5038948;28;20413;-82
2022/04/10 07:05:59;;;;;;;6.90;4.83;;;2.30;99.90;;;;;;5040008;28;20424;-82
2022/04/10 07:08:26;;;;;;;9.37;5.23;;;;;;;;;;5037810;28;20571;-82
2022/04/10 07:10:53;;;;;;;8.73;5.00;;;2.40;99.90;;;;;;5037144;28;20253;-80
2022/04/10 07:13:21;;;;;;;9.27;5.17;;;2.30;99.90;;;;;;5037567;28;20457;-81
2022/04/10 07:15:50;;;;;;;5.43;4.40;;;2.40;99.90;;;;;;5039633;28;20170;-81
2022/04/10 07:18:16;;;;;;;9.13;4.70;;;2.40;99.90;;;;;;5037340;28;20178;-81
2022/04/10 07:20:42;;;;;;;7.10;5.20;;;2.60;99.90;;;;;;5036769;28;20448;-81
2022/04/10 07:25:53;;;;;;;13.73;7.07;;;3.20;99.90;;;;;;5035286;28;20173;-82
2022/04/10 07:28:19;;;;;;;5.70;5.17;;;3.40;99.90;;;;;;5037419;28;20420;-82
2022/04/10 07:30:45;;;;;;;6.50;5.00;;;3.30;99.90;;;;;;5042576;28;20201;-82
2022/04/10 07:33:11;;;;;;;5.50;4.63;;;3.20;99.90;;;;;;5040670;28;20205;-83
2022/04/10 07:35:40;;;;;;;5.53;4.37;;;3.40;99.90;;;;;;5040718;28;20179;-82
2022/04/10 07:38:06;;;;;;;7.43;5.03;;;3.70;99.90;;;;;;5041889;28;20198;-82
2022/04/10 07:40:36;;;;;;;5.30;4.50;;;3.90;99.90;;;;;;5039270;28;20264;-82
2022/04/10 07:43:02;;;;;;;6.83;6.17;;;3.60;99.90;;;;;;5038432;28;20181;-82
2022/04/10 07:48:12;;;;;;;10.53;5.23;;;3.30;99.90;;;;;;5042368;28;20190;-82
2022/04/10 07:50:39;;;;;;;5.50;5.00;;;3.30;99.90;;;;;;5041494;28;20205;-83
2022/04/10 07:53:05;;;;;;;9.57;5.50;;;3.20;99.90;;;;;;5037824;28;20202;-82
2022/04/10 07:55:31;;;;;;;5.87;4.53;;;4.50;99.90;;;;;;5038790;28;20187;-83
2022/04/10 07:57:57;;;;;;;6.93;4.93;;;6.00;99.90;;;;;;5039313;28;20257;-82
2022/04/10 08:00:22;;;;;;;5.70;3.67;;;7.00;99.90;;;;;;5039438;28;20613;-82
2022/04/10 08:02:49;;;;;;;4.73;3.87;;;7.80;99.90;;;;;;5044585;28;20180;-82
2022/04/10 08:05:16;;;;;;;5.53;4.20;;;7.20;99.90;;;;;;5045981;28;20176;-81
2022/04/10 08:07:44;;;;;;;8.10;3.50;;;6.30;99.90;;;;;;5047439;28;20175;-82
2022/04/10 08:10:10;;;;;;;7.17;3.43;;;6.30;99.90;;;;;;5044130;28;20210;-82
2022/04/10 08:12:36;;;;;;;3.50;3.20;;;5.40;99.90;;;;;;5044509;28;20184;-83
2022/04/10 08:15:03;;;;;;;6.60;4.30;;;5.40;99.90;;;;;;5044569;28;20175;-82
2022/04/10 08:17:29;;;;;;;11.97;6.70;;;7.20;99.90;;;;;;5044886;28;20251;-81
2022/04/10 08:19:55;;;;;;;4.87;3.30;;;7.70;99.90;;;;;;5044931;28;20193;-82
2022/04/10 08:22:25;;;;;;;5.90;3.80;;;7.70;99.90;;;;;;5043679;28;20179;-82
2022/04/10 08:24:51;;;;;;;5.33;3.47;;;8.40;99.90;;;;;;5045302;28;20180;-81
2022/04/10 08:27:16;;;;;;;7.67;2.70;;;7.70;99.90;;;;;;5043664;28;20544;-82
2022/04/10 08:29:43;;;;;;;3.83;2.90;;;7.30;99.90;;;;;;5044589;28;20668;-82
2022/04/10 08:32:09;;;;;;;2.90;2.57;;;8.20;99.90;;;;;;5043993;28;20189;-82
2022/04/10 08:34:34;;;;;;;3.47;2.50;;;8.00;99.20;;;;;;5044302;28;20208;-83
2022/04/10 08:37:05;;;;;;;2.40;2.20;;;8.20;99.90;;;;;;5043075;28;20203;-83
2022/04/10 08:39:31;;;;;;;4.23;2.60;;;6.90;96.80;;;;;;5044614;28;20279;-82
2022/04/10 08:42:01;;;;;;;3.70;2.30;;;6.50;98.30;;;;;;5042876;28;20170;-82
2022/04/10 08:44:29;;;;;;;2.90;2.47;;;5.70;99.90;;;;;;5043380;28;20182;-83
2022/04/10 08:46:56;;;;;;;5.40;2.73;;;5.30;99.90;;;;;;5045949;28;20588;-82
2022/04/10 08:49:26;;;;;;;4.67;3.13;;;6.20;99.90;;;;;;5049782;28;20265;-81
2022/04/10 08:51:53;;;;;;;7.80;3.73;;;6.60;99.90;;;;;;5054469;28;20171;-82
2022/04/10 08:54:19;;;;;;;3.03;2.50;;;6.20;99.90;;;;;;5054585;28;20274;-82
2022/04/10 08:56:45;;;;;;;5.33;2.67;;;6.10;99.90;;;;;;5049491;28;20177;-82
2022/04/10 08:59:12;;;;;;;4.60;2.80;;;6.50;99.90;;;;;;5044429;28;20242;-80
2022/04/10 09:01:38;;;;;;;3.30;2.30;;;6.90;99.90;;;;;;5043403;28;20172;-80
2022/04/10 09:04:04;;;;;;;3.93;2.50;;;7.50;97.10;;;;;;5041187;28;20189;-81
2022/04/10 09:06:30;;;;;;;4.10;2.27;;;7.50;97.60;;;;;;5042871;28;20171;-81
2022/04/10 09:09:14;;;;;;;5.00;2.47;;;7.80;97.50;;;;;;5042944;28;20548;-81
2022/04/10 09:11:40;;;;;;;3.13;2.20;;;8.40;95.30;;;;;;5041916;28;20177;-81
2022/04/10 09:14:06;;;;;;;5.57;2.57;;;9.20;93.80;;;;;;5041763;28;20731;-81
2022/04/10 09:16:32;;;;;;;3.23;2.23;;;8.90;90.50;;;;;;5042268;28;20216;-81
2022/04/10 09:19:00;;;;;;;3.33;2.00;;;8.70;91.90;;;;;;5043690;28;20197;-81
2022/04/10 09:21:29;;;;;;;3.77;2.40;;;8.70;92.30;;;;;;5043682;28;20167;-80
2022/04/10 09:24:05;;;;;;;4.67;2.70;;;8.80;90.70;;;;;;5043327;28;20200;-80
2022/04/10 09:26:44;;;;;;;3.43;2.10;;;9.10;92.20;;;;;;5042540;28;20175;-81
2022/04/10 09:29:11;;;;;;;3.50;2.00;;;8.40;90.70;;;;;;5043709;28;20213;-81
2022/04/10 09:31:37;;;;;;;5.20;2.20;;;7.30;92.30;;;;;;5046076;28;20174;-82
2022/04/10 09:34:08;;;;;;;2.73;2.07;;;7.10;93.90;;;;;;5054022;28;20256;-81
2022/04/10 09:36:41;;;;;;;3.67;2.00;;;7.90;93.20;;;;;;5046231;28;20179;-82
2022/04/10 09:39:11;;;;;;;3.40;2.30;;;8.40;92.10;;;;;;5040399;28;20296;-82
2022/04/10 09:41:38;;;;;;;4.77;2.40;;;8.60;92.80;;;;;;5041691;28;20174;-82
2022/04/10 09:44:11;;;;;;;4.40;2.30;;;8.50;89.60;;;;;;5040560;28;20181;-82
2022/04/10 09:46:37;;;;;;;3.37;2.53;;;7.80;91.00;;;;;;5040300;28;20314;-82
2022/04/10 09:49:05;;;;;;;2.10;1.90;;;7.30;91.20;;;;;;5040906;28;20313;-81
2022/04/10 09:51:31;;;;;;;3.67;2.30;;;6.70;91.20;;;;;;5041617;28;20170;-81
2022/04/10 09:54:05;;;;;;;4.67;2.63;;;6.20;92.40;;;;;;5042143;28;20202;-81
2022/04/10 09:56:31;;;;;;;3.07;2.20;;;6.30;93.40;;;;;;5040213;28;20185;-81
2022/04/10 09:58:59;;;;;;;2.77;1.90;;;7.20;90.90;;;;;;5039286;28;20198;-81
2022/04/10 10:01:28;;;;;;;5.20;2.60;;;7.20;90.70;;;;;;5042201;28;20181;-81
2022/04/10 10:03:57;;;;;;;3.30;2.03;;;7.10;88.60;;;;;;5041596;28;20184;-82
2022/04/10 10:06:24;;;;;;;5.30;2.27;;;6.90;90.70;;;;;;5039297;28;20189;-83
2022/04/10 10:08:51;;;;;;;3.53;1.87;;;6.60;90.00;;;;;;5039565;28;20202;-81
2022/04/10 10:11:19;;;;;;;2.97;1.87;;;6.60;90.00;;;;;;5038625;28;20190;-81
2022/04/10 10:13:46;;;;;;;3.83;2.20;;;6.30;90.60;;;;;;5039079;28;20204;-81
2022/04/10 10:16:12;;;;;;;2.20;1.77;;;6.10;92.20;;;;;;5039772;28;20178;-81
2022/04/10 10:18:40;;;;;;;2.47;2.00;;;6.30;94.80;;;;;;5040299;28;20716;-82
2022/04/10 10:21:09;;;;;;;3.20;2.20;;;6.60;92.00;;;;;;5037824;28;20181;-82
2022/04/10 10:23:36;;;;;;;3.93;2.27;;;6.60;92.00;;;;;;5037028;28;20521;-82
2022/04/10 10:26:34;;;;;;;3.23;2.07;;;7.30;91.90;;;;;;5036554;28;20185;-82
2022/04/10 10:29:24;;;;;;;2.30;2.07;;;7.10;89.40;;;;;;5035336;28;20213;-83
2022/04/10 10:31:58;;;;;;;2.50;1.80;;;7.00;87.00;;;;;;5035927;28;20167;-82
2022/04/10 10:34:26;;;;;;;2.50;1.77;;;6.90;86.90;;;;;;5036193;28;20210;-81
2022/04/10 10:36:57;;;;;;;3.30;2.43;;;6.40;89.70;;;;;;5039271;28;20471;-83
2022/04/10 10:39:23;;;;;;;3.93;2.30;;;6.50;90.20;;;;;;5041744;28;20659;-83
2022/04/10 10:41:52;;;;;;;4.13;2.17;;;6.50;90.20;;;;;;5039642;28;20383;-83
2022/04/10 10:44:27;;;;;;;2.50;2.20;;;6.90;88.80;;;;;;5039392;28;20187;-82
2022/04/10 10:47:00;;;;;;;3.87;2.10;;;7.10;89.00;;;;;;5040972;28;20182;-83
2022/04/10 10:49:31;;;;;;;2.20;2.00;;;7.40;88.80;;;;;;5039549;28;20283;-83
2022/04/10 10:52:03;;;;;;;3.40;2.10;;;7.50;87.70;;;;;;5040757;28;20182;-82
2022/04/10 10:54:42;;;;;;;3.27;1.70;;;7.30;85.50;;;;;;5040283;28;20210;-81
2022/04/10 10:57:25;;;;;;;3.13;1.90;;;7.10;85.50;;;;;;5041024;28;20181;-83
2022/04/10 11:00:13;;;;;;;2.47;1.70;;;8.70;84.40;;;;;;5040362;28;20568;-83
2022/04/10 11:02:40;;;;;;;3.73;2.20;;;8.90;83.20;;;;;;5041124;28;20617;-82
2022/04/10 11:05:07;;;;;;;1.97;1.57;;;9.30;82.90;;;;;;5040216;28;20236;-83
2022/04/10 11:07:39;;;;;;;2.17;1.83;;;9.30;83.40;;;;;;5042013;28;20515;-83
2022/04/10 11:10:11;;;;;;;4.33;2.33;;;9.50;85.90;;;;;;5040501;28;20263;-82
2022/04/10 11:12:52;;;;;;;2.10;1.90;;;10.00;83.80;;;;;;5042227;28;20178;-84
2022/04/10 11:15:23;;;;;;;3.77;1.70;;;10.30;82.90;;;;;;5039095;28;20240;-84
2022/04/10 11:17:50;;;;;;;3.63;2.00;;;9.70;80.00;;;;;;5039996;28;20178;-83
2022/04/10 11:20:20;;;;;;;2.57;1.97;;;8.80;79.90;;;;;;5039805;28;20194;-83
2022/04/10 11:22:55;;;;;;;3.23;1.97;;;8.00;82.50;;;;;;5040038;28;20174;-82
2022/04/10 11:25:27;;;;;;;2.73;1.80;;;7.70;86.10;;;;;;5040316;28;20197;-84
2022/04/10 11:28:01;;;;;;;4.27;1.87;;;7.40;89.30;;;;;;5040539;28;20166;-84
2022/04/10 11:30:45;;;;;;;2.20;1.47;;;7.10;86.60;;;;;;5038537;28;20286;-82
2022/04/10 11:33:13;;;;;;;3.33;1.60;;;7.00;86.10;;;;;;5040759;28;20255;-82
2022/04/10 11:35:41;;;;;;;3.23;2.00;;;7.10;85.50;;;;;;5041136;28;20177;-82
2022/04/10 11:38:13;;;;;;;1.93;1.47;;;7.50;86.50;;;;;;5037112;28;20199;-83
2022/04/10 11:40:48;;;;;;;3.30;1.80;;;7.60;91.30;;;;;;5036779;28;20261;-82
2022/04/10 11:43:19;;;;;;;3.80;2.10;;;7.40;85.20;;;;;;5035967;28;20264;-82
2022/04/10 11:45:53;;;;;;;2.03;1.70;;;7.40;88.20;;;;;;5036883;28;20646;-81
2022/04/10 11:48:20;;;;;;;2.70;1.50;;;7.50;84.60;;;;;;5036093;28;20170;-82
2022/04/10 11:50:49;;;;;;;3.10;1.87;;;7.50;84.00;;;;;;5037720;28;20285;-82
2022/04/10 11:53:14;;;;;;;2.80;1.70;;;7.50;83.60;;;;;;5036414;28;20193;-81
2022/04/10 11:55:42;;;;;;;7.07;2.00;;;7.90;86.20;;;;;;5036701;28;20174;-82
2022/04/10 11:58:24;;;;;;;1.93;1.83;;;7.80;86.70;;;;;;5036721;28;20173;-83
2022/04/10 12:00:51;;;;;;;2.30;1.70;;;7.70;84.20;;;;;;5036784;28;20212;-82
2022/04/10 12:03:18;;;;;;;3.13;2.13;;;7.40;81.10;;;;;;5037296;28;20183;-82
2022/04/10 12:05:44;;;;;;;2.60;1.70;;;7.00;83.90;;;;;;5036548;28;20181;-82
2022/04/10 12:08:10;;;;;;;2.87;1.90;;;6.90;86.50;;;;;;5038962;28;20233;-80
2022/04/10 12:10:36;;;;;;;2.47;2.03;;;6.50;92.10;;;;;;5037167;28;20702;-80
2022/04/10 12:13:03;;;;;;;2.67;2.27;;;5.80;95.30;;;;;;5037525;28;20217;-81
2022/04/10 12:15:28;;;;;;;4.40;1.90;;;5.50;96.20;;;;;;5038389;28;20175;-81
2022/04/10 12:18:08;;;;;;;3.13;2.23;;;5.30;99.90;;;;;;5036360;28;20181;-81
2022/04/10 12:20:43;;;;;;;7.00;4.40;;;4.70;99.90;;;;;;5036856;28;20257;-82
2022/04/10 12:23:20;;;;;;;4.87;3.60;;;4.60;99.90;;;;;;5038813;28;20177;-82
2022/04/10 12:25:55;;;;;;;5.50;4.00;;;4.60;99.90;;;;;;5036945;28;20170;-82
2022/04/10 12:28:22;;;;;;;29.10;17.77;;;4.70;99.90;;;;;;5040590;28;20189;-83
2022/04/10 12:30:48;;;;;;;8.80;5.10;;;4.70;99.90;;;;;;5039725;28;20456;-83
2022/04/10 12:33:17;;;;;;;10.37;7.63;;;4.80;99.90;;;;;;5040046;28;20544;-83
2022/04/10 12:35:44;;;;;;;4.30;3.90;;;5.20;99.90;;;;;;5039866;28;20429;-83
2022/04/10 12:38:15;;;;;;;4.40;4.00;;;5.50;99.90;;;;;;5040274;28;20197;-83
2022/04/10 12:40:41;;;;;;;7.80;6.50;;;5.30;99.90;;;;;;5040295;28;20267;-83
2022/04/10 12:43:09;;;;;;;15.20;9.27;;;5.20;99.90;;;;;;5041832;28;20417;-83
2022/04/10 12:45:38;;;;;;;4.63;4.23;;;5.10;99.90;;;;;;5048043;28;20193;-83
2022/04/10 12:48:21;;;;;;;6.53;4.37;;;4.90;99.90;;;;;;5048278;28;20278;-83
2022/04/10 12:51:02;;;;;;;8.23;4.60;;;4.80;99.90;;;;;;5052291;28;20269;-83
2022/04/10 12:53:28;;;;;;;6.20;4.63;;;4.90;99.90;;;;;;5043874;28;20599;-83
2022/04/10 12:55:54;;;;;;;5.10;4.53;;;4.80;99.90;;;;;;5042890;28;20237;-82
2022/04/10 12:58:20;;;;;;;6.70;3.63;;;5.10;99.90;;;;;;5041789;28;20187;-82
2022/04/10 13:00:47;;;;;;;5.43;3.80;;;5.70;99.90;;;;;;5041863;28;20672;-82
2022/04/10 13:03:27;;;;;;;5.87;4.10;;;6.30;99.90;;;;;;5041929;28;20201;-83
2022/04/10 13:06:00;;;;;;;4.47;4.00;;;7.50;99.90;;;;;;5041227;28;20166;-82
2022/04/10 13:08:32;;;;;;;4.60;2.90;;;8.80;99.90;;;;;;5041698;28;20175;-82
2022/04/10 13:10:59;;;;;;;4.80;3.17;;;9.40;99.90;;;;;;5041854;28;20162;-83
2022/04/10 13:13:26;;;;;;;3.60;2.90;;;9.10;99.90;;;;;;5043169;28;20210;-82
2022/04/10 13:15:52;;;;;;;3.87;2.70;;;8.70;99.90;;;;;;5049114;28;20289;-82
2022/04/10 13:18:25;;;;;;;6.30;2.30;;;9.40;99.90;;;;;;5040184;28;20178;-83
2022/04/10 13:20:51;;;;;;;2.67;2.10;;;10.50;99.90;;;;;;5037768;28;20694;-84
2022/04/10 13:23:17;;;;;;;2.83;2.10;;;11.50;99.90;;;;;;5039780;28;20182;-82
2022/04/10 13:25:47;;;;;;;3.17;2.33;;;12.50;99.30;;;;;;5040548;28;20631;-82
2022/04/10 13:28:14;;;;;;;3.20;2.20;;;13.10;91.40;;;;;;5039745;28;20178;-81